createdAt,value
2023-03-03T00:01:07.630Z,54.83
2023-03-03T00:04:12.096Z,55.02
2023-03-03T00:07:22.408Z,54.03
2023-03-03T00:10:26.332Z,55.54
2023-03-03T00:13:33.410Z,55.55
2023-03-03T00:16:40.254Z,53.88
2023-03-03T00:19:47.955Z,54.91
2023-03-03T00:22:52.198Z,54.13
2023-03-03T00:25:57.607Z,54.38
2023-03-03T00:29:02.852Z,53.21
2023-03-03T00:32:26.829Z,52.08
2023-03-03T00:35:39.419Z,53.36
2023-03-03T00:38:45.120Z,53.48
2023-03-03T00:41:50.518Z,52.21
2023-03-03T00:45:01.528Z,52.39
2023-03-03T00:48:28.593Z,51.70
2023-03-03T00:51:37.798Z,51.92
2023-03-03T00:54:42.081Z,51.86
2023-03-03T00:57:46.389Z,51.32
2023-03-03T01:00:55.686Z,50.14
2023-03-03T01:04:05.818Z,50.90
2023-03-03T01:07:10.181Z,50.00
2023-03-03T01:10:14.276Z,48.28
2023-03-03T01:13:19.354Z,46.99
2023-03-03T01:16:23.789Z,47.91
2023-03-03T01:19:28.216Z,46.52
2023-03-03T01:22:32.526Z,48.07
2023-03-03T01:25:37.365Z,45.81
2023-03-03T01:28:42.780Z,46.71
2023-03-03T01:31:47.199Z,46.01
2023-03-03T01:34:51.315Z,45.30
2023-03-03T01:37:55.228Z,46.83
2023-03-03T01:41:01.410Z,47.08
2023-03-03T01:44:05.913Z,48.30
2023-03-03T01:47:15.736Z,45.10
2023-03-03T01:50:37.559Z,44.94
2023-03-03T01:53:47.555Z,43.19
2023-03-03T01:56:56.877Z,43.99
2023-03-03T02:00:03.715Z,45.12
2023-03-03T02:03:16.454Z,44.98
2023-03-03T02:06:28.863Z,46.83
2023-03-03T02:10:00.754Z,48.13
2023-03-03T02:13:06.374Z,51.38
2023-03-03T02:16:10.452Z,51.47
2023-03-03T02:19:28.514Z,49.93
2023-03-03T02:23:11.569Z,49.36
2023-03-03T02:26:26.474Z,51.69
2023-03-03T02:29:36.132Z,50.29
2023-03-03T02:32:42.756Z,52.05
2023-03-03T02:35:47.081Z,51.77
2023-03-03T02:38:55.691Z,51.13
2023-03-03T02:42:12.031Z,52.28
2023-03-03T02:45:30.210Z,50.53
2023-03-03T02:48:34.134Z,51.80
2023-03-03T02:51:38.903Z,49.87
2023-03-03T02:54:43.266Z,50.24
2023-03-03T02:57:47.752Z,50.21
2023-03-03T03:00:52.286Z,53.00
2023-03-03T03:04:00.067Z,51.30
2023-03-03T03:07:05.246Z,49.87
2023-03-03T03:10:12.946Z,49.25
2023-03-03T03:13:19.145Z,50.08
2023-03-03T03:16:23.879Z,50.29
2023-03-03T03:19:29.056Z,51.52
2023-03-03T03:22:36.518Z,51.86
2023-03-03T03:25:47.429Z,51.03
2023-03-03T03:28:59.298Z,51.52
2023-03-03T03:32:03.975Z,51.43
2023-03-03T03:35:08.236Z,51.45
2023-03-03T03:38:13.446Z,50.70
2023-03-03T03:41:18.650Z,49.97
2023-03-03T03:44:24.887Z,51.43
2023-03-03T03:47:30.414Z,50.19
2023-03-03T03:50:35.619Z,51.09
2023-03-03T03:53:40.094Z,49.99
2023-03-03T03:56:44.132Z,49.01
2023-03-03T03:59:50.467Z,50.93
2023-03-03T04:02:55.677Z,49.65
2023-03-03T04:06:00.957Z,48.04
2023-03-03T04:09:05.394Z,50.29
2023-03-03T04:12:10.812Z,51.51
2023-03-03T04:15:16.457Z,51.77
2023-03-03T04:18:21.294Z,51.54
2023-03-03T04:21:26.082Z,50.91
2023-03-03T04:24:32.100Z,50.47
2023-03-03T04:27:38.109Z,49.90
2023-03-03T04:30:42.369Z,49.37
2023-03-03T04:33:46.161Z,50.54
2023-03-03T04:36:50.431Z,50.18
2023-03-03T04:39:55.246Z,50.14
2023-03-03T04:42:59.724Z,49.78
2023-03-03T04:46:04.198Z,49.07
2023-03-03T04:49:12.307Z,48.90
2023-03-03T04:52:19.338Z,49.88
2023-03-03T04:55:24.178Z,48.20
2023-03-03T04:58:29.014Z,47.91
2023-03-03T05:01:33.165Z,48.72
2023-03-03T05:04:38.254Z,47.80
2023-03-03T05:07:42.207Z,47.26
2023-03-03T05:10:46.136Z,47.42
2023-03-03T05:13:50.621Z,44.86
2023-03-03T05:16:54.845Z,47.24
2023-03-03T05:19:59.423Z,47.04
2023-03-03T05:23:05.070Z,46.08
2023-03-03T05:26:09.607Z,46.48
2023-03-03T05:29:13.946Z,45.84
2023-03-03T05:32:18.762Z,45.52
2023-03-03T05:35:23.051Z,44.58
2023-03-03T05:38:27.745Z,45.67
2023-03-03T05:41:32.062Z,43.63
2023-03-03T05:44:36.495Z,43.47
2023-03-03T05:47:40.790Z,42.39
2023-03-03T05:50:44.990Z,44.12
2023-03-03T05:53:49.552Z,43.50
2023-03-03T05:56:58.203Z,44.82
2023-03-03T06:00:01.928Z,41.67
2023-03-03T06:03:16.004Z,42.95
2023-03-03T06:06:20.416Z,41.97
2023-03-03T06:09:25.073Z,44.53
2023-03-03T06:12:29.438Z,44.07
2023-03-03T06:15:33.731Z,43.86
2023-03-03T06:18:38.208Z,45.63
2023-03-03T06:21:42.870Z,45.08
2023-03-03T06:24:47.427Z,43.79
2023-03-03T06:27:51.828Z,44.05
2023-03-03T06:30:56.877Z,43.88
2023-03-03T06:34:02.908Z,42.31
2023-03-03T06:37:07.986Z,45.45
2023-03-03T06:40:12.509Z,44.92
2023-03-03T06:43:17.557Z,45.32
2023-03-03T06:46:21.902Z,45.40
2023-03-03T06:49:25.951Z,45.30
2023-03-03T06:52:30.343Z,45.07
2023-03-03T06:55:34.697Z,45.03
2023-03-03T06:58:38.972Z,46.04
2023-03-03T07:01:44.358Z,45.96
2023-03-03T07:04:49.022Z,46.23
2023-03-03T07:07:53.491Z,46.43
2023-03-03T07:11:02.432Z,46.12
2023-03-03T07:14:15.333Z,46.88
2023-03-03T07:17:21.848Z,46.99
2023-03-03T07:20:35.885Z,47.14
2023-03-03T07:23:44.545Z,45.79
2023-03-03T07:26:48.961Z,47.35
2023-03-03T07:29:57.122Z,47.04
2023-03-03T07:33:01.817Z,46.92
2023-03-03T07:36:23.713Z,47.73
2023-03-03T07:39:39.071Z,47.46
2023-03-03T07:42:45.176Z,48.31
2023-03-03T07:46:04.606Z,48.09
2023-03-03T07:49:37.656Z,48.48
2023-03-03T07:52:45.632Z,50.01
2023-03-03T07:55:50.676Z,50.08
2023-03-03T07:58:57.048Z,50.50
2023-03-03T08:02:02.372Z,50.44
2023-03-03T08:05:34.847Z,51.07
2023-03-03T08:08:39.202Z,50.70
2023-03-03T08:12:15.272Z,51.13
2023-03-03T08:15:29.459Z,51.05
2023-03-03T08:18:39.757Z,51.01
2023-03-03T08:21:43.621Z,51.06
2023-03-03T08:24:49.073Z,52.08
2023-03-03T08:27:53.098Z,53.30
2023-03-03T08:31:12.990Z,51.80
2023-03-03T08:34:22.511Z,51.71
2023-03-03T08:37:26.333Z,52.35
2023-03-03T08:40:30.642Z,52.24
2023-03-03T08:43:36.012Z,52.48
2023-03-03T08:46:40.451Z,53.02
2023-03-03T08:49:44.891Z,53.44
2023-03-03T08:52:49.197Z,53.58
2023-03-03T08:55:53.484Z,52.64
2023-03-03T08:59:02.616Z,53.39
2023-03-03T09:02:08.340Z,53.04
2023-03-03T09:05:13.257Z,53.33
2023-03-03T09:08:17.021Z,53.52
2023-03-03T09:11:29.015Z,53.88
2023-03-03T09:14:33.090Z,53.75
2023-03-03T09:17:39.384Z,54.12
2023-03-03T09:20:48.948Z,54.41
2023-03-03T09:23:57.585Z,54.64
2023-03-03T09:27:02.407Z,54.87
2023-03-03T09:30:32.145Z,54.41
2023-03-03T09:33:50.602Z,55.20
2023-03-03T09:36:57.504Z,55.00
2023-03-03T09:40:01.748Z,55.42
2023-03-03T09:43:24.972Z,55.37
2023-03-03T09:47:03.714Z,56.03
2023-03-03T09:50:22.724Z,56.84
2023-03-03T09:54:03.798Z,57.62
2023-03-03T09:57:23.528Z,55.84
2023-03-03T10:00:48.956Z,54.88
2023-03-03T10:04:21.700Z,55.85
2023-03-03T10:08:14.550Z,56.81
2023-03-03T10:11:36.721Z,55.70
2023-03-03T10:14:41.445Z,55.37
2023-03-03T10:17:55.294Z,54.89
2023-03-03T10:21:05.875Z,54.11
2023-03-03T10:24:29.046Z,53.95
2023-03-03T10:28:00.746Z,55.48
2023-03-03T10:31:28.910Z,55.66
2023-03-03T10:35:10.742Z,55.11
2023-03-03T10:38:56.261Z,55.22
2023-03-03T10:42:03.797Z,54.29
2023-03-03T10:45:28.762Z,55.55
2023-03-03T10:49:10.501Z,57.86
2023-03-03T10:52:32.573Z,57.11
2023-03-03T10:55:42.695Z,57.35
2023-03-03T10:58:47.268Z,57.82
2023-03-03T11:02:08.256Z,58.56
2023-03-03T11:05:31.438Z,58.14
2023-03-03T11:09:00.880Z,57.42
2023-03-03T11:12:48.439Z,57.68
2023-03-03T11:16:07.729Z,58.27
2023-03-03T11:19:35.471Z,58.23
2023-03-03T11:22:55.526Z,56.12
2023-03-03T11:26:29.532Z,55.43
2023-03-03T11:29:55.049Z,56.40
2023-03-03T11:33:11.046Z,57.46
2023-03-03T11:36:18.339Z,57.47
2023-03-03T11:39:29.838Z,57.85
2023-03-03T11:43:20.641Z,57.87
2023-03-03T11:46:51.042Z,58.53
2023-03-03T11:50:01.433Z,59.23
2023-03-03T11:53:38.260Z,59.55
2023-03-03T11:56:45.685Z,58.59
2023-03-03T12:00:01.510Z,60.91
2023-03-03T12:04:02.363Z,60.83
2023-03-03T12:07:22.274Z,60.47
2023-03-03T12:10:56.361Z,59.44
2023-03-03T12:14:27.256Z,60.29
2023-03-03T12:17:56.446Z,61.52
2023-03-03T12:21:06.823Z,61.79
2023-03-03T12:24:44.573Z,60.87
2023-03-03T12:28:18.873Z,61.41
2023-03-03T12:31:46.773Z,60.72
2023-03-03T12:35:04.945Z,60.95
2023-03-03T12:38:29.000Z,60.91
2023-03-03T12:41:35.064Z,61.16
2023-03-03T12:45:12.784Z,61.24
2023-03-03T12:48:39.601Z,61.78
2023-03-03T12:51:53.129Z,60.67
2023-03-03T12:55:35.740Z,61.87
2023-03-03T12:58:46.092Z,62.65
2023-03-03T13:02:09.209Z,61.11
2023-03-03T13:05:45.937Z,60.47
2023-03-03T13:09:04.314Z,60.33
2023-03-03T13:12:14.565Z,61.10
2023-03-03T13:15:34.966Z,61.64
2023-03-03T13:19:03.827Z,61.40
2023-03-03T13:22:19.290Z,61.23
2023-03-03T13:25:51.859Z,60.74
2023-03-03T13:29:12.148Z,61.34
2023-03-03T13:32:22.216Z,61.21
2023-03-03T13:35:50.306Z,61.60
2023-03-03T13:38:59.073Z,61.64
2023-03-03T13:42:17.344Z,62.51
2023-03-03T13:45:43.492Z,63.53
2023-03-03T13:49:04.689Z,63.90
2023-03-03T13:52:26.273Z,63.67
2023-03-03T13:55:35.341Z,64.41
2023-03-03T13:59:06.570Z,64.30
2023-03-03T14:03:01.553Z,64.16
2023-03-03T14:06:14.254Z,63.28
2023-03-03T14:09:55.135Z,63.19
2023-03-03T14:13:18.520Z,61.88
2023-03-03T14:16:57.785Z,61.57
2023-03-03T14:20:24.967Z,61.14
2023-03-03T14:23:51.317Z,61.95
2023-03-03T14:26:59.267Z,62.75
2023-03-03T14:30:44.964Z,62.68
2023-03-03T14:34:14.809Z,62.95
2023-03-03T14:37:26.344Z,63.39
2023-03-03T14:40:35.497Z,64.44
2023-03-03T14:43:42.677Z,65.13
2023-03-03T14:47:06.845Z,63.31
2023-03-03T14:50:30.906Z,62.98
2023-03-03T14:53:44.755Z,61.39
2023-03-03T14:57:16.367Z,62.39
2023-03-03T15:00:24.197Z,63.27
2023-03-03T15:03:29.746Z,63.25
2023-03-03T15:06:39.731Z,63.42
2023-03-03T15:09:51.362Z,61.94
2023-03-03T15:12:55.939Z,63.63
2023-03-03T15:16:32.529Z,63.42
2023-03-03T15:19:45.746Z,63.13
2023-03-03T15:23:11.457Z,63.05
2023-03-03T15:26:28.688Z,63.98
2023-03-03T15:29:33.466Z,63.56
2023-03-03T15:33:13.792Z,63.65
2023-03-03T15:36:49.084Z,62.58
2023-03-03T15:39:55.950Z,62.47
2023-03-03T15:43:26.236Z,61.82
2023-03-03T15:46:34.001Z,61.62
2023-03-03T15:50:07.518Z,62.13
2023-03-03T15:54:06.337Z,62.68
2023-03-03T15:57:32.324Z,63.03
2023-03-03T16:00:49.886Z,62.49
2023-03-03T16:03:58.055Z,62.17
2023-03-03T16:07:26.856Z,63.12
2023-03-03T16:10:53.461Z,62.27
2023-03-03T16:14:18.489Z,62.93
2023-03-03T16:17:31.368Z,63.58
2023-03-03T16:21:03.186Z,61.77
2023-03-03T16:24:23.171Z,62.97
2023-03-03T16:27:30.571Z,62.20
2023-03-03T16:31:13.746Z,63.24
2023-03-03T16:34:27.363Z,63.36
2023-03-03T16:37:40.877Z,63.79
2023-03-03T16:40:55.432Z,63.78
2023-03-03T16:44:31.860Z,64.18
2023-03-03T16:47:46.139Z,62.95
2023-03-03T16:51:05.801Z,62.97
2023-03-03T16:54:34.527Z,62.28
2023-03-03T16:57:52.183Z,62.26
2023-03-03T17:01:26.325Z,62.30
2023-03-03T17:04:45.456Z,62.28
2023-03-03T17:08:04.670Z,61.28
2023-03-03T17:11:44.251Z,62.26
2023-03-03T17:15:08.639Z,62.23
2023-03-03T17:18:40.120Z,63.85
2023-03-03T17:22:29.208Z,63.86
2023-03-03T17:25:51.698Z,63.17
2023-03-03T17:29:28.722Z,61.90
2023-03-03T17:33:00.870Z,62.90
2023-03-03T17:36:28.397Z,63.27
2023-03-03T17:39:32.745Z,63.58
2023-03-03T17:43:03.297Z,63.29
2023-03-03T17:46:20.539Z,63.29
2023-03-03T17:49:36.777Z,63.79
2023-03-03T17:52:58.778Z,63.29
2023-03-03T17:56:03.157Z,63.12
2023-03-03T17:59:45.812Z,63.32
2023-03-03T18:02:53.242Z,64.34
2023-03-03T18:06:18.348Z,64.41
2023-03-03T18:09:31.628Z,64.46
2023-03-03T18:12:56.073Z,65.15
2023-03-03T18:16:12.702Z,65.86
2023-03-03T18:19:32.020Z,64.57
2023-03-03T18:22:49.671Z,63.81
2023-03-03T18:26:04.731Z,64.25
2023-03-03T18:29:29.309Z,64.32
2023-03-03T18:32:57.354Z,62.98
2023-03-03T18:36:40.088Z,62.35
2023-03-03T18:39:53.541Z,61.89
2023-03-03T18:42:58.204Z,61.62
2023-03-03T18:46:05.512Z,64.10
2023-03-03T18:49:14.002Z,63.43
2023-03-03T18:52:26.553Z,62.90
2023-03-03T18:55:41.343Z,62.18
2023-03-03T18:58:46.425Z,61.52
2023-03-03T19:01:52.723Z,61.18
2023-03-03T19:04:58.153Z,60.70
2023-03-03T19:08:17.665Z,60.83
2023-03-03T19:11:35.979Z,61.57
2023-03-03T19:14:49.610Z,62.29
2023-03-03T19:17:58.886Z,62.65
2023-03-03T19:21:07.612Z,61.62
2023-03-03T19:24:24.308Z,61.12
2023-03-03T19:27:45.133Z,61.42
2023-03-03T19:30:59.386Z,62.99
2023-03-03T19:34:22.274Z,64.40
2023-03-03T19:37:43.573Z,64.48
2023-03-03T19:41:10.513Z,64.22
2023-03-03T19:44:33.064Z,63.51
2023-03-03T19:47:40.681Z,63.49
2023-03-03T19:51:24.317Z,64.10
2023-03-03T19:54:51.133Z,63.35
2023-03-03T19:58:23.208Z,62.30
2023-03-03T20:01:51.799Z,61.80
2023-03-03T20:04:59.160Z,61.65
2023-03-03T20:08:41.258Z,61.62
2023-03-03T20:12:22.326Z,60.77
2023-03-03T20:15:48.618Z,61.43
2023-03-03T20:19:09.080Z,61.47
2023-03-03T20:22:19.184Z,62.41
2023-03-03T20:25:32.215Z,62.59
2023-03-03T20:28:45.440Z,62.95
2023-03-03T20:32:24.505Z,63.28
2023-03-03T20:35:40.778Z,63.10
2023-03-03T20:39:08.426Z,61.02
2023-03-03T20:42:52.946Z,61.63
2023-03-03T20:46:13.822Z,62.27
2023-03-03T20:49:39.571Z,62.86
2023-03-03T20:52:52.343Z,63.60
2023-03-03T20:55:56.635Z,62.31
2023-03-03T20:59:17.223Z,62.22
2023-03-03T21:03:07.046Z,62.13
2023-03-03T21:06:22.065Z,61.92
2023-03-03T21:09:34.186Z,61.58
2023-03-03T21:12:44.102Z,61.77
2023-03-03T21:16:06.247Z,62.48
2023-03-03T21:19:25.998Z,61.47
2023-03-03T21:22:30.307Z,62.47
2023-03-03T21:25:54.482Z,61.52
2023-03-03T21:29:03.677Z,61.20
2023-03-03T21:32:34.140Z,61.76
2023-03-03T21:35:59.633Z,61.71
2023-03-03T21:39:25.258Z,61.35
2023-03-03T21:42:46.057Z,62.30
2023-03-03T21:45:50.079Z,61.50
2023-03-03T21:48:54.359Z,62.24
2023-03-03T21:51:59.653Z,61.60
2023-03-03T21:55:03.583Z,61.45
2023-03-03T21:58:07.552Z,62.54
2023-03-03T22:01:12.089Z,64.64
2023-03-03T22:04:16.073Z,63.46
2023-03-03T22:07:19.843Z,63.66
2023-03-03T22:10:24.351Z,62.94
2023-03-03T22:13:30.260Z,61.18
2023-03-03T22:16:35.678Z,62.19
2023-03-03T22:19:39.646Z,63.99
2023-03-03T22:22:44.365Z,63.16
2023-03-03T22:25:48.672Z,60.93
2023-03-03T22:28:52.618Z,61.37
2023-03-03T22:31:56.600Z,63.04
2023-03-03T22:35:00.849Z,62.49
2023-03-03T22:38:05.915Z,61.54
2023-03-03T22:41:09.996Z,62.32
2023-03-03T22:44:14.245Z,63.48
2023-03-03T22:47:18.676Z,65.21
2023-03-03T22:50:23.015Z,67.25
2023-03-03T22:53:27.852Z,64.32
2023-03-03T22:56:32.117Z,62.93
2023-03-03T22:59:36.662Z,60.91
2023-03-03T23:02:42.933Z,60.86
2023-03-03T23:05:49.042Z,59.68
2023-03-03T23:08:55.443Z,60.81
2023-03-03T23:12:00.216Z,59.66
2023-03-03T23:15:07.296Z,59.38
2023-03-03T23:18:11.838Z,54.92
2023-03-03T23:21:16.009Z,56.50
2023-03-03T23:24:19.868Z,54.85
2023-03-03T23:27:24.501Z,56.05
2023-03-03T23:30:28.438Z,57.41
2023-03-03T23:33:32.676Z,57.23
2023-03-03T23:36:36.536Z,57.55
2023-03-03T23:39:41.936Z,55.72
2023-03-03T23:42:46.746Z,55.79
2023-03-03T23:45:50.628Z,55.44
2023-03-03T23:48:54.604Z,54.28
2023-03-03T23:51:58.542Z,54.99
2023-03-03T23:55:02.937Z,56.46
2023-03-03T23:58:07.348Z,56.82
